createdAt,value
2018-03-23T00:00:09.613Z,46.62
2018-03-23T00:00:21.730Z,46.62
2018-03-23T00:00:33.866Z,46.62
2018-03-23T00:00:46.001Z,46.62
2018-03-23T00:00:58.152Z,46.62
2018-03-23T00:01:10.308Z,46.62
2018-03-23T00:01:22.506Z,46.62
2018-03-23T00:01:34.640Z,46.62
2018-03-23T00:01:46.788Z,46.62
2018-03-23T00:01:58.919Z,46.62
2018-03-23T00:02:11.108Z,46.62
2018-03-23T00:02:23.255Z,46.62
2018-03-23T00:02:35.384Z,46.62
2018-03-23T00:02:47.528Z,46.62
2018-03-23T00:02:59.702Z,46.62
2018-03-23T00:03:11.845Z,44.52
2018-03-23T00:03:23.993Z,44.52
2018-03-23T00:03:36.138Z,44.52
2018-03-23T00:03:48.269Z,44.52
2018-03-23T00:04:00.408Z,44.52
2018-03-23T00:04:12.551Z,44.52
2018-03-23T00:04:24.694Z,44.52
2018-03-23T00:04:36.849Z,44.52
2018-03-23T00:04:49.024Z,44.52
2018-03-23T00:05:01.159Z,44.52
2018-03-23T00:05:13.281Z,44.52
2018-03-23T00:05:25.400Z,44.52
2018-03-23T00:05:37.538Z,44.52
2018-03-23T00:05:49.688Z,44.52
2018-03-23T00:06:01.852Z,44.52
2018-03-23T00:06:13.996Z,42.12
2018-03-23T00:06:26.140Z,42.12
2018-03-23T00:06:38.277Z,42.12
2018-03-23T00:06:50.433Z,42.12
2018-03-23T00:07:02.590Z,42.12
2018-03-23T00:07:14.752Z,42.12
2018-03-23T00:07:26.942Z,42.12
2018-03-23T00:07:39.076Z,42.12
2018-03-23T00:07:51.254Z,42.12
2018-03-23T00:08:03.536Z,42.12
2018-03-23T00:08:15.700Z,42.12
2018-03-23T00:08:27.833Z,42.12
2018-03-23T00:08:39.984Z,42.12
2018-03-23T00:08:52.119Z,42.12
2018-03-23T00:09:04.265Z,42.12
2018-03-23T00:09:16.415Z,38
2018-03-23T00:09:28.581Z,38
2018-03-23T00:09:40.744Z,38
2018-03-23T00:09:52.922Z,38
2018-03-23T00:10:05.072Z,38
2018-03-23T00:10:17.264Z,38
2018-03-23T00:10:29.395Z,38
2018-03-23T00:10:41.607Z,38
2018-03-23T00:10:53.751Z,38
2018-03-23T00:11:05.886Z,38
2018-03-23T00:11:18.077Z,38
2018-03-23T00:11:30.362Z,38
2018-03-23T00:11:42.501Z,38
2018-03-23T00:11:54.648Z,38
2018-03-23T00:12:06.790Z,38
2018-03-23T00:12:18.971Z,40.08
2018-03-23T00:12:31.113Z,40.08
2018-03-23T00:12:43.485Z,40.08
2018-03-23T00:12:55.634Z,40.08
2018-03-23T00:13:07.768Z,40.08
2018-03-23T00:13:19.892Z,40.08
2018-03-23T00:13:32.022Z,40.08
2018-03-23T00:13:44.179Z,40.08
2018-03-23T00:13:56.315Z,40.08
2018-03-23T00:14:08.459Z,40.08
2018-03-23T00:14:20.587Z,40.08
2018-03-23T00:14:32.731Z,40.08
2018-03-23T00:14:44.870Z,40.08
2018-03-23T00:14:57.049Z,40.08
2018-03-23T00:15:09.186Z,40.08
2018-03-23T00:15:21.306Z,42.58
2018-03-23T00:15:33.500Z,42.58
2018-03-23T00:15:45.648Z,42.58
2018-03-23T00:15:57.792Z,42.58
2018-03-23T00:16:10.128Z,42.58
2018-03-23T00:16:22.294Z,42.58
2018-03-23T00:16:34.435Z,42.58
2018-03-23T00:16:46.573Z,42.58
2018-03-23T00:16:58.724Z,42.58
2018-03-23T00:17:10.865Z,42.58
2018-03-23T00:17:23.066Z,42.58
2018-03-23T00:17:35.199Z,42.58
2018-03-23T00:17:47.350Z,42.58
2018-03-23T00:17:59.488Z,42.58
2018-03-23T00:18:11.618Z,42.58
2018-03-23T00:18:23.759Z,38.95
2018-03-23T00:18:35.893Z,38.95
2018-03-23T00:18:48.032Z,38.95
2018-03-23T00:19:00.182Z,38.95
2018-03-23T00:19:12.551Z,38.95
2018-03-23T00:19:24.747Z,38.95
2018-03-23T00:19:36.883Z,38.95
2018-03-23T00:19:49.010Z,38.95
2018-03-23T00:20:01.148Z,38.95
2018-03-23T00:20:13.290Z,38.95
2018-03-23T00:20:25.422Z,38.95
2018-03-23T00:20:37.610Z,38.95
2018-03-23T00:20:49.741Z,38.95
2018-03-23T00:21:02.038Z,38.95
2018-03-23T00:21:14.199Z,35.81
2018-03-23T00:21:26.359Z,35.81
2018-03-23T00:21:38.543Z,35.81
2018-03-23T00:21:50.687Z,35.81
2018-03-23T00:22:02.826Z,35.81
2018-03-23T00:22:14.944Z,35.81
2018-03-23T00:22:27.077Z,35.81
2018-03-23T00:22:39.218Z,35.81
2018-03-23T00:22:51.362Z,35.81
2018-03-23T00:23:03.499Z,35.81
2018-03-23T00:23:15.630Z,35.81
2018-03-23T00:23:27.760Z,35.81
2018-03-23T00:23:39.897Z,35.81
2018-03-23T00:23:52.039Z,35.81
2018-03-23T00:24:04.175Z,35.81
2018-03-23T00:24:16.315Z,39.08
2018-03-23T00:24:28.540Z,39.08
2018-03-23T00:24:40.677Z,39.08
2018-03-23T00:24:52.811Z,39.08
2018-03-23T00:25:04.942Z,39.08
2018-03-23T00:25:17.076Z,39.08
2018-03-23T00:25:29.216Z,39.08
2018-03-23T00:25:41.347Z,39.08
2018-03-23T00:25:53.482Z,39.08
2018-03-23T00:26:05.666Z,39.08
2018-03-23T00:26:17.801Z,39.08
2018-03-23T00:26:29.949Z,39.08
2018-03-23T00:26:42.127Z,39.08
2018-03-23T00:26:54.272Z,39.08
2018-03-23T00:27:06.412Z,39.08
2018-03-23T00:27:18.537Z,40.7
2018-03-23T00:27:30.666Z,40.7
2018-03-23T00:27:43.034Z,40.7
2018-03-23T00:27:55.344Z,40.7
2018-03-23T00:28:07.497Z,40.7
2018-03-23T00:28:19.628Z,40.7
2018-03-23T00:28:31.762Z,40.7
2018-03-23T00:28:43.909Z,40.7
2018-03-23T00:28:56.106Z,40.7
2018-03-23T00:29:08.239Z,40.7
2018-03-23T00:29:20.384Z,40.7
2018-03-23T00:29:32.570Z,40.7
2018-03-23T00:29:44.719Z,40.7
2018-03-23T00:29:56.849Z,40.7
2018-03-23T00:30:08.990Z,40.7
2018-03-23T00:30:21.138Z,40.87
2018-03-23T00:30:33.344Z,40.87
2018-03-23T00:30:45.475Z,40.87
2018-03-23T00:30:57.595Z,40.87
2018-03-23T00:31:09.725Z,40.87
2018-03-23T00:31:21.861Z,40.87
2018-03-23T00:31:33.990Z,40.87
2018-03-23T00:31:46.116Z,40.87
2018-03-23T00:31:58.277Z,40.87
2018-03-23T00:32:10.408Z,40.87
2018-03-23T00:32:22.706Z,40.87
2018-03-23T00:32:34.894Z,40.87
2018-03-23T00:32:47.056Z,40.87
2018-03-23T00:32:59.237Z,40.87
2018-03-23T00:33:11.380Z,40.87
2018-03-23T00:33:23.508Z,34.73
2018-03-23T00:33:35.654Z,34.73
2018-03-23T00:33:47.799Z,34.73
2018-03-23T00:33:59.944Z,34.73
2018-03-23T00:34:12.110Z,34.73
2018-03-23T00:34:24.231Z,34.73
2018-03-23T00:34:36.369Z,34.73
2018-03-23T00:34:48.546Z,34.73
2018-03-23T00:35:00.682Z,34.73
2018-03-23T00:35:12.807Z,34.73
2018-03-23T00:35:24.947Z,34.73
2018-03-23T00:35:37.096Z,34.73
2018-03-23T00:35:49.226Z,34.73
2018-03-23T00:36:01.383Z,34.73
2018-03-23T00:36:13.520Z,34.73
2018-03-23T00:36:25.647Z,33.66
2018-03-23T00:36:37.780Z,33.66
2018-03-23T00:36:49.913Z,33.66
2018-03-23T00:37:02.045Z,33.66
2018-03-23T00:37:14.239Z,33.66
2018-03-23T00:37:26.530Z,33.66
2018-03-23T00:37:38.668Z,33.66
2018-03-23T00:37:50.805Z,33.66
2018-03-23T00:38:02.940Z,33.66
2018-03-23T00:38:15.071Z,33.66
2018-03-23T00:38:27.208Z,33.66
2018-03-23T00:38:39.395Z,33.66
2018-03-23T00:38:51.524Z,33.66
2018-03-23T00:39:03.655Z,33.66
2018-03-23T00:39:15.814Z,37.31
2018-03-23T00:39:27.957Z,37.31
2018-03-23T00:39:40.085Z,37.31
2018-03-23T00:39:52.213Z,37.31
2018-03-23T00:40:04.359Z,37.31
2018-03-23T00:40:16.520Z,37.31
2018-03-23T00:40:28.667Z,37.31
2018-03-23T00:40:40.802Z,37.31
2018-03-23T00:40:52.980Z,37.31
2018-03-23T00:41:05.115Z,37.31
2018-03-23T00:41:17.388Z,37.31
2018-03-23T00:41:29.541Z,37.31
2018-03-23T00:41:41.684Z,37.31
2018-03-23T00:41:53.830Z,37.31
2018-03-23T00:42:05.989Z,37.31
2018-03-23T00:42:18.131Z,37.11
2018-03-23T00:42:30.269Z,37.11
2018-03-23T00:42:42.468Z,37.11
2018-03-23T00:42:54.596Z,37.11
2018-03-23T00:43:06.731Z,37.11
2018-03-23T00:43:18.870Z,37.11
2018-03-23T00:43:31.015Z,37.11
2018-03-23T00:43:43.185Z,37.11
2018-03-23T00:43:55.323Z,37.11
2018-03-23T00:44:07.466Z,37.11
2018-03-23T00:44:19.671Z,37.11
2018-03-23T00:44:31.882Z,37.11
2018-03-23T00:44:44.020Z,37.11
2018-03-23T00:44:56.156Z,37.11
2018-03-23T00:45:08.305Z,37.11
2018-03-23T00:45:20.446Z,36.72
2018-03-23T00:45:32.580Z,36.72
2018-03-23T00:45:44.724Z,36.72
2018-03-23T00:45:56.862Z,36.72
2018-03-23T00:46:09.026Z,36.72
2018-03-23T00:46:21.171Z,36.72
2018-03-23T00:46:33.538Z,36.72
2018-03-23T00:46:45.669Z,36.72
2018-03-23T00:46:57.794Z,36.72
2018-03-23T00:47:09.956Z,36.72
2018-03-23T00:47:22.256Z,36.72
2018-03-23T00:47:34.400Z,36.72
2018-03-23T00:47:46.546Z,36.72
2018-03-23T00:47:58.807Z,36.72
2018-03-23T00:48:10.943Z,36.72
2018-03-23T00:48:23.161Z,37.95
2018-03-23T00:48:35.291Z,37.95
2018-03-23T00:48:47.446Z,37.95
2018-03-23T00:48:59.578Z,37.95
2018-03-23T00:49:11.724Z,37.95
2018-03-23T00:49:23.854Z,37.95
2018-03-23T00:49:35.983Z,37.95
2018-03-23T00:49:48.112Z,37.95
2018-03-23T00:50:00.263Z,37.95
2018-03-23T00:50:12.410Z,37.95
2018-03-23T00:50:24.555Z,37.95
2018-03-23T00:50:36.705Z,37.95
2018-03-23T00:50:48.851Z,37.95
2018-03-23T00:51:01.011Z,37.95
2018-03-23T00:51:13.156Z,37.95
2018-03-23T00:51:25.313Z,37.69
2018-03-23T00:51:37.464Z,37.69
2018-03-23T00:51:49.603Z,37.69
2018-03-23T00:52:01.775Z,37.69
2018-03-23T00:52:13.933Z,37.69
2018-03-23T00:52:26.082Z,37.69
2018-03-23T00:52:38.278Z,37.69
2018-03-23T00:52:50.442Z,37.69
2018-03-23T00:53:02.633Z,37.69
2018-03-23T00:53:14.773Z,37.69
2018-03-23T00:53:26.914Z,37.69
2018-03-23T00:53:39.080Z,37.69
2018-03-23T00:53:51.266Z,37.69
2018-03-23T00:54:03.409Z,37.69
2018-03-23T00:54:15.552Z,37.69
2018-03-23T00:54:27.686Z,32.05
2018-03-23T00:54:39.827Z,32.05
2018-03-23T00:54:52.017Z,32.05
2018-03-23T00:55:04.164Z,32.05
2018-03-23T00:55:16.346Z,32.05
2018-03-23T00:55:28.783Z,32.05
2018-03-23T00:55:40.977Z,32.05
2018-03-23T00:55:53.121Z,32.05
2018-03-23T00:56:05.266Z,32.05
2018-03-23T00:56:17.404Z,32.05
2018-03-23T00:56:29.530Z,32.05
2018-03-23T00:56:41.727Z,32.05
2018-03-23T00:56:53.892Z,32.05
2018-03-23T00:57:06.024Z,32.05
2018-03-23T00:57:18.213Z,24.08
2018-03-23T00:57:30.588Z,24.08
2018-03-23T00:57:42.729Z,24.08
2018-03-23T00:57:54.887Z,24.08
2018-03-23T00:58:07.048Z,24.08
2018-03-23T00:58:19.205Z,24.08
2018-03-23T00:58:31.411Z,24.08
2018-03-23T00:58:43.544Z,24.08
2018-03-23T00:58:55.685Z,24.08
2018-03-23T00:59:07.821Z,24.08
2018-03-23T00:59:19.979Z,24.08
2018-03-23T00:59:32.391Z,24.08
2018-03-23T00:59:44.627Z,24.08
2018-03-23T00:59:56.771Z,24.08
2018-03-23T01:00:08.953Z,24.08
2018-03-23T01:00:21.092Z,22.1
2018-03-23T01:00:33.223Z,22.1
2018-03-23T01:00:45.359Z,22.1
2018-03-23T01:00:57.493Z,22.1
2018-03-23T01:01:09.643Z,22.1
2018-03-23T01:01:21.785Z,22.1
2018-03-23T01:01:33.927Z,22.1
2018-03-23T01:01:46.064Z,22.1
2018-03-23T01:01:58.214Z,22.1
2018-03-23T01:02:10.372Z,22.1
2018-03-23T01:02:22.514Z,22.1
2018-03-23T01:02:34.662Z,22.1
2018-03-23T01:02:46.789Z,22.1
2018-03-23T01:02:58.933Z,22.1
2018-03-23T01:03:11.123Z,22.1
2018-03-23T01:03:23.270Z,24.78
2018-03-23T01:03:35.434Z,24.78
2018-03-23T01:03:47.591Z,24.78
2018-03-23T01:03:59.724Z,24.78
2018-03-23T01:04:11.869Z,24.78
2018-03-23T01:04:24.021Z,24.78
2018-03-23T01:04:36.172Z,24.78
2018-03-23T01:04:48.309Z,24.78
2018-03-23T01:05:00.438Z,24.78
2018-03-23T01:05:12.603Z,24.78
2018-03-23T01:05:24.751Z,24.78
2018-03-23T01:05:36.910Z,24.78
2018-03-23T01:05:49.041Z,24.78
2018-03-23T01:06:01.177Z,24.78
2018-03-23T01:06:13.311Z,24.78
2018-03-23T01:06:25.480Z,24.77
2018-03-23T01:06:37.970Z,24.77
2018-03-23T01:06:50.103Z,24.77
2018-03-23T01:07:02.257Z,24.77
2018-03-23T01:07:14.401Z,24.77
2018-03-23T01:07:26.537Z,24.77
2018-03-23T01:07:38.669Z,24.77
2018-03-23T01:07:50.823Z,24.77
2018-03-23T01:08:02.971Z,24.77
2018-03-23T01:08:15.129Z,24.77
2018-03-23T01:08:27.334Z,24.77
2018-03-23T01:08:39.526Z,24.77
2018-03-23T01:08:51.684Z,24.77
2018-03-23T01:09:03.830Z,24.77
2018-03-23T01:09:15.978Z,24.77
2018-03-23T01:09:28.121Z,21.66
2018-03-23T01:09:40.268Z,21.66
2018-03-23T01:09:52.409Z,21.66
2018-03-23T01:10:04.556Z,21.66
2018-03-23T01:10:16.701Z,21.66
2018-03-23T01:10:28.860Z,21.66
2018-03-23T01:10:41.012Z,21.66
2018-03-23T01:10:53.171Z,21.66
2018-03-23T01:11:05.313Z,21.66
2018-03-23T01:11:17.440Z,21.66
2018-03-23T01:11:29.789Z,21.66
2018-03-23T01:11:41.951Z,21.66
2018-03-23T01:11:54.082Z,21.66
2018-03-23T01:12:06.229Z,21.66
2018-03-23T01:12:18.371Z,21.09
2018-03-23T01:12:30.546Z,21.09
2018-03-23T01:12:42.816Z,21.09
2018-03-23T01:12:54.974Z,21.09
2018-03-23T01:13:07.108Z,21.09
2018-03-23T01:13:19.248Z,21.09
2018-03-23T01:13:31.443Z,21.09
2018-03-23T01:13:43.832Z,21.09
2018-03-23T01:13:55.976Z,21.09
2018-03-23T01:14:08.136Z,21.09
2018-03-23T01:14:20.342Z,21.09
2018-03-23T01:14:32.632Z,21.09
2018-03-23T01:14:45.071Z,21.09
2018-03-23T01:14:57.207Z,21.09
2018-03-23T01:15:09.346Z,21.09
2018-03-23T01:15:21.497Z,22.16
2018-03-23T01:15:33.630Z,22.16
2018-03-23T01:15:45.782Z,22.16
2018-03-23T01:15:57.925Z,22.16
2018-03-23T01:16:10.055Z,22.16
2018-03-23T01:16:22.197Z,22.16
2018-03-23T01:16:34.359Z,22.16
2018-03-23T01:16:46.496Z,22.16
2018-03-23T01:16:58.641Z,22.16
2018-03-23T01:17:11.030Z,22.16
2018-03-23T01:17:23.177Z,22.16
2018-03-23T01:17:35.317Z,22.16
2018-03-23T01:17:47.462Z,22.16
2018-03-23T01:17:59.595Z,22.16
2018-03-23T01:18:11.746Z,22.16
2018-03-23T01:18:23.896Z,21.61
2018-03-23T01:18:36.043Z,21.61
2018-03-23T01:18:48.170Z,21.61
2018-03-23T01:19:00.354Z,21.61
2018-03-23T01:19:12.497Z,21.61
2018-03-23T01:19:24.626Z,21.61
2018-03-23T01:19:36.815Z,21.61
2018-03-23T01:19:48.956Z,21.61
2018-03-23T01:20:01.118Z,21.61
2018-03-23T01:20:13.250Z,21.61
2018-03-23T01:20:25.394Z,21.61
2018-03-23T01:20:37.610Z,21.61
2018-03-23T01:20:49.753Z,21.61
2018-03-23T01:21:01.885Z,21.61
2018-03-23T01:21:14.017Z,21.61
2018-03-23T01:21:26.153Z,22.08
2018-03-23T01:21:38.308Z,22.08
2018-03-23T01:21:50.599Z,22.08
2018-03-23T01:22:02.785Z,22.08
2018-03-23T01:22:14.936Z,22.08
2018-03-23T01:22:27.118Z,22.08
2018-03-23T01:22:39.317Z,22.08
2018-03-23T01:22:51.455Z,22.08
2018-03-23T01:23:03.601Z,22.08
2018-03-23T01:23:15.754Z,22.08
2018-03-23T01:23:27.893Z,22.08
2018-03-23T01:23:40.051Z,22.08
2018-03-23T01:23:52.183Z,22.08
2018-03-23T01:24:04.379Z,22.08
2018-03-23T01:24:16.581Z,22.08
2018-03-23T01:24:28.720Z,22.13
2018-03-23T01:24:40.869Z,22.13
2018-03-23T01:24:52.999Z,22.13
2018-03-23T01:25:05.128Z,22.13
2018-03-23T01:25:17.284Z,22.13
2018-03-23T01:25:29.432Z,22.13
2018-03-23T01:25:41.583Z,22.13
2018-03-23T01:25:53.730Z,22.13
2018-03-23T01:26:05.875Z,22.13
2018-03-23T01:26:18.017Z,22.13
2018-03-23T01:26:30.165Z,22.13
2018-03-23T01:26:42.314Z,22.13
2018-03-23T01:26:54.477Z,22.13
2018-03-23T01:27:06.656Z,22.13
2018-03-23T01:27:18.806Z,22.13
2018-03-23T01:27:30.937Z,23.5
2018-03-23T01:27:43.089Z,23.5
2018-03-23T01:27:55.530Z,23.5
2018-03-23T01:28:07.673Z,23.5
2018-03-23T01:28:19.866Z,23.5
2018-03-23T01:28:32.048Z,23.5
2018-03-23T01:28:44.186Z,23.5
2018-03-23T01:28:56.314Z,23.5
2018-03-23T01:29:08.448Z,23.5
2018-03-23T01:29:20.579Z,23.5
2018-03-23T01:29:32.708Z,23.5
2018-03-23T01:29:44.931Z,23.5
2018-03-23T01:29:57.067Z,23.5
2018-03-23T01:30:09.253Z,23.5
2018-03-23T01:30:21.391Z,24.63
2018-03-23T01:30:33.533Z,24.63
2018-03-23T01:30:45.675Z,24.63
2018-03-23T01:30:57.824Z,24.63
2018-03-23T01:31:10.011Z,24.63
2018-03-23T01:31:22.149Z,24.63
2018-03-23T01:31:34.395Z,24.63
2018-03-23T01:31:46.540Z,24.63
2018-03-23T01:31:58.685Z,24.63
2018-03-23T01:32:10.824Z,24.63
2018-03-23T01:32:23.060Z,24.63
2018-03-23T01:32:35.194Z,24.63
2018-03-23T01:32:47.327Z,24.63
2018-03-23T01:32:59.470Z,24.63
2018-03-23T01:33:11.631Z,24.63
2018-03-23T01:33:23.759Z,24.8
2018-03-23T01:33:35.956Z,24.8
2018-03-23T01:33:48.085Z,24.8
2018-03-23T01:34:00.229Z,24.8
2018-03-23T01:34:12.380Z,24.8
2018-03-23T01:34:24.519Z,24.8
2018-03-23T01:34:36.668Z,24.8
2018-03-23T01:34:48.839Z,24.8
2018-03-23T01:35:00.989Z,24.8
2018-03-23T01:35:13.143Z,24.8
2018-03-23T01:35:25.321Z,24.8
2018-03-23T01:35:37.442Z,24.8
2018-03-23T01:35:49.588Z,24.8
2018-03-23T01:36:01.783Z,24.8
2018-03-23T01:36:13.918Z,24.8
2018-03-23T01:36:26.066Z,23.03
2018-03-23T01:36:38.551Z,23.03
2018-03-23T01:36:50.690Z,23.03
2018-03-23T01:37:02.831Z,23.03
2018-03-23T01:37:14.972Z,23.03
2018-03-23T01:37:27.346Z,23.03
2018-03-23T01:37:39.507Z,23.03
2018-03-23T01:37:51.661Z,23.03
2018-03-23T01:38:03.800Z,23.03
2018-03-23T01:38:15.935Z,23.03
2018-03-23T01:38:28.124Z,23.03
2018-03-23T01:38:40.270Z,23.03
2018-03-23T01:38:52.427Z,23.03
2018-03-23T01:39:04.555Z,23.03
2018-03-23T01:39:16.712Z,23.03
2018-03-23T01:39:29.034Z,22.3
2018-03-23T01:39:41.171Z,22.3
2018-03-23T01:39:53.351Z,22.3
2018-03-23T01:40:05.512Z,22.3
2018-03-23T01:40:17.654Z,22.3
2018-03-23T01:40:29.810Z,22.3
2018-03-23T01:40:41.972Z,22.3
2018-03-23T01:40:54.103Z,22.3
2018-03-23T01:41:06.354Z,22.3
2018-03-23T01:41:18.667Z,22.3
2018-03-23T01:41:30.805Z,22.3
2018-03-23T01:41:42.969Z,22.3
2018-03-23T01:41:55.107Z,22.3
2018-03-23T01:42:07.245Z,22.3
2018-03-23T01:42:19.392Z,22.3
2018-03-23T01:42:31.527Z,23.12
2018-03-23T01:42:43.660Z,23.12
2018-03-23T01:42:55.810Z,23.12
2018-03-23T01:43:07.953Z,23.12
2018-03-23T01:43:20.094Z,23.12
2018-03-23T01:43:32.236Z,23.12
2018-03-23T01:43:44.424Z,23.12
2018-03-23T01:43:56.616Z,23.12
2018-03-23T01:44:08.770Z,23.12
2018-03-23T01:44:20.914Z,23.12
2018-03-23T01:44:33.063Z,23.12
2018-03-23T01:44:45.201Z,23.12
2018-03-23T01:44:57.333Z,23.12
2018-03-23T01:45:09.477Z,23.12
2018-03-23T01:45:21.617Z,23.12
2018-03-23T01:45:33.751Z,25.62
2018-03-23T01:45:45.884Z,25.62
2018-03-23T01:45:58.106Z,25.62
2018-03-23T01:46:10.277Z,25.62
2018-03-23T01:46:22.418Z,25.62
2018-03-23T01:46:34.583Z,25.62
2018-03-23T01:46:46.730Z,25.62
2018-03-23T01:46:58.881Z,25.62
2018-03-23T01:47:11.017Z,25.62
2018-03-23T01:47:23.280Z,25.62
2018-03-23T01:47:35.422Z,25.62
2018-03-23T01:47:47.553Z,25.62
2018-03-23T01:47:59.804Z,25.62
2018-03-23T01:48:11.945Z,25.62
2018-03-23T01:48:24.104Z,26.8
2018-03-23T01:48:36.234Z,26.8
2018-03-23T01:48:48.382Z,26.8
2018-03-23T01:49:00.534Z,26.8
2018-03-23T01:49:12.684Z,26.8
2018-03-23T01:49:24.826Z,26.8
2018-03-23T01:49:36.970Z,26.8
2018-03-23T01:49:49.131Z,26.8
2018-03-23T01:50:01.265Z,26.8
2018-03-23T01:50:13.481Z,26.8
2018-03-23T01:50:25.667Z,26.8
2018-03-23T01:50:37.800Z,26.8
2018-03-23T01:50:49.940Z,26.8
2018-03-23T01:51:02.109Z,26.8
2018-03-23T01:51:14.251Z,26.8
2018-03-23T01:51:26.396Z,25.17
2018-03-23T01:51:38.541Z,25.17
2018-03-23T01:51:50.677Z,25.17
2018-03-23T01:52:02.826Z,25.17
2018-03-23T01:52:14.972Z,25.17
2018-03-23T01:52:27.129Z,25.17
2018-03-23T01:52:39.281Z,25.17
2018-03-23T01:52:51.535Z,25.17
2018-03-23T01:53:03.673Z,25.17
2018-03-23T01:53:16.203Z,25.17
2018-03-23T01:53:28.340Z,25.17
2018-03-23T01:53:40.478Z,25.17
2018-03-23T01:53:52.627Z,25.17
2018-03-23T01:54:04.753Z,25.17
2018-03-23T01:54:16.916Z,25.17
2018-03-23T01:54:29.054Z,25.77
2018-03-23T01:54:41.198Z,25.77
2018-03-23T01:54:53.341Z,25.77
2018-03-23T01:55:05.527Z,25.77
2018-03-23T01:55:17.702Z,25.77
2018-03-23T01:55:29.892Z,25.77
2018-03-23T01:55:42.030Z,25.77
2018-03-23T01:55:54.165Z,25.77
2018-03-23T01:56:06.317Z,25.77
2018-03-23T01:56:18.481Z,25.77
2018-03-23T01:56:30.626Z,25.77
2018-03-23T01:56:42.770Z,25.77
2018-03-23T01:56:54.902Z,25.77
2018-03-23T01:57:07.040Z,25.77
2018-03-23T01:57:19.507Z,25.77
2018-03-23T01:57:31.649Z,26.9
2018-03-23T01:57:43.782Z,26.9
2018-03-23T01:57:55.979Z,26.9
2018-03-23T01:58:08.273Z,26.9
2018-03-23T01:58:20.401Z,26.9
2018-03-23T01:58:32.536Z,26.9
2018-03-23T01:58:44.669Z,26.9
2018-03-23T01:58:56.855Z,26.9
2018-03-23T01:59:09.088Z,26.9
2018-03-23T01:59:21.225Z,26.9
2018-03-23T01:59:33.460Z,26.9
2018-03-23T01:59:45.590Z,26.9
2018-03-23T01:59:57.733Z,26.9
2018-03-23T02:00:09.887Z,26.9
2018-03-23T02:00:22.036Z,26.9
2018-03-23T02:00:34.177Z,24.7
2018-03-23T02:00:46.475Z,24.7
2018-03-23T02:00:58.608Z,24.7
2018-03-23T02:01:10.751Z,24.7
2018-03-23T02:01:22.896Z,24.7
2018-03-23T02:01:35.088Z,24.7
2018-03-23T02:01:47.221Z,24.7
2018-03-23T02:01:59.373Z,24.7
2018-03-23T02:02:11.521Z,24.7
2018-03-23T02:02:23.714Z,24.7
2018-03-23T02:02:35.844Z,24.7
2018-03-23T02:02:47.983Z,24.7
2018-03-23T02:03:00.117Z,24.7
2018-03-23T02:03:12.243Z,24.7
2018-03-23T02:03:24.600Z,22.98
2018-03-23T02:03:36.747Z,22.98
2018-03-23T02:03:49.005Z,22.98
2018-03-23T02:04:01.177Z,22.98
2018-03-23T02:04:13.371Z,22.98
2018-03-23T02:04:25.573Z,22.98
2018-03-23T02:04:37.749Z,22.98
2018-03-23T02:04:49.885Z,22.98
2018-03-23T02:05:02.025Z,22.98
2018-03-23T02:05:14.173Z,22.98
2018-03-23T02:05:26.321Z,22.98
2018-03-23T02:05:38.509Z,22.98
2018-03-23T02:05:50.905Z,22.98
2018-03-23T02:06:03.049Z,22.98
2018-03-23T02:06:15.188Z,22.98
2018-03-23T02:06:27.331Z,23.56
2018-03-23T02:06:39.474Z,23.56
2018-03-23T02:06:51.625Z,23.56
2018-03-23T02:07:03.781Z,23.56
2018-03-23T02:07:15.920Z,23.56
2018-03-23T02:07:28.093Z,23.56
2018-03-23T02:07:40.252Z,23.56
2018-03-23T02:07:52.406Z,23.56
2018-03-23T02:08:04.549Z,23.56
2018-03-23T02:08:16.715Z,23.56
2018-03-23T02:08:28.867Z,23.56
2018-03-23T02:08:41.005Z,23.56
2018-03-23T02:08:53.137Z,23.56
2018-03-23T02:09:05.289Z,23.56
2018-03-23T02:09:17.416Z,23.56
2018-03-23T02:09:29.597Z,23.02
2018-03-23T02:09:41.726Z,23.02
2018-03-23T02:09:53.919Z,23.02
2018-03-23T02:10:06.051Z,23.02
2018-03-23T02:10:18.186Z,23.02
2018-03-23T02:10:30.417Z,23.02
2018-03-23T02:10:42.550Z,23.02
2018-03-23T02:10:54.707Z,23.02
2018-03-23T02:11:06.885Z,23.02
2018-03-23T02:11:19.020Z,23.02
2018-03-23T02:11:31.245Z,23.02
2018-03-23T02:11:43.368Z,23.02
2018-03-23T02:11:55.555Z,23.02
2018-03-23T02:12:07.688Z,23.02
2018-03-23T02:12:19.821Z,23.02
2018-03-23T02:12:31.946Z,22.23
2018-03-23T02:12:44.280Z,22.23
2018-03-23T02:12:56.409Z,22.23
2018-03-23T02:13:08.555Z,22.23
2018-03-23T02:13:20.943Z,22.23
2018-03-23T02:13:33.081Z,22.23
2018-03-23T02:13:45.239Z,22.23
2018-03-23T02:13:57.421Z,22.23
2018-03-23T02:14:09.548Z,22.23
2018-03-23T02:14:21.672Z,22.23
2018-03-23T02:14:33.811Z,22.23
2018-03-23T02:14:45.948Z,22.23
2018-03-23T02:14:58.092Z,22.23
2018-03-23T02:15:10.264Z,22.23
2018-03-23T02:15:22.382Z,22.23
2018-03-23T02:15:34.547Z,23.12
2018-03-23T02:15:46.678Z,23.12
2018-03-23T02:15:58.809Z,23.12
2018-03-23T02:16:10.961Z,23.12
2018-03-23T02:16:23.098Z,23.12
2018-03-23T02:16:35.218Z,23.12
2018-03-23T02:16:47.413Z,23.12
2018-03-23T02:16:59.536Z,23.12
2018-03-23T02:17:11.671Z,23.12
2018-03-23T02:17:23.856Z,23.12
2018-03-23T02:17:35.997Z,23.12
2018-03-23T02:17:48.309Z,23.12
2018-03-23T02:18:00.501Z,23.12
2018-03-23T02:18:12.632Z,23.12
2018-03-23T02:18:24.767Z,23.12
2018-03-23T02:18:36.963Z,24.44
2018-03-23T02:18:49.120Z,24.44
2018-03-23T02:19:01.244Z,24.44
2018-03-23T02:19:13.374Z,24.44
2018-03-23T02:19:25.497Z,24.44
2018-03-23T02:19:37.660Z,24.44
2018-03-23T02:19:49.787Z,24.44
2018-03-23T02:20:01.921Z,24.44
2018-03-23T02:20:14.062Z,24.44
2018-03-23T02:20:26.184Z,24.44
2018-03-23T02:20:38.305Z,24.44
2018-03-23T02:20:50.436Z,24.44
2018-03-23T02:21:02.574Z,24.44
2018-03-23T02:21:14.744Z,24.44
2018-03-23T02:21:26.878Z,24.44
2018-03-23T02:21:39.579Z,24.12
2018-03-23T02:21:51.718Z,24.12
2018-03-23T02:22:03.860Z,24.12
2018-03-23T02:22:15.980Z,24.12
2018-03-23T02:22:28.117Z,24.12
2018-03-23T02:22:40.296Z,24.12
2018-03-23T02:22:52.435Z,24.12
2018-03-23T02:23:04.607Z,24.12
2018-03-23T02:23:16.742Z,24.12
2018-03-23T02:23:28.898Z,24.12
2018-03-23T02:23:41.076Z,24.12
2018-03-23T02:23:53.198Z,24.12
2018-03-23T02:24:05.379Z,24.12
2018-03-23T02:24:17.504Z,24.12
2018-03-23T02:24:29.649Z,23.71
2018-03-23T02:24:41.791Z,23.71
2018-03-23T02:24:53.924Z,23.71
2018-03-23T02:25:06.033Z,23.71
2018-03-23T02:25:18.156Z,23.71
2018-03-23T02:25:30.383Z,23.71
2018-03-23T02:25:42.543Z,23.71
2018-03-23T02:25:54.674Z,23.71
2018-03-23T02:26:06.798Z,23.71
2018-03-23T02:26:18.979Z,23.71
2018-03-23T02:26:31.095Z,23.71
2018-03-23T02:26:43.214Z,23.71
2018-03-23T02:26:55.345Z,23.71
2018-03-23T02:27:07.468Z,23.71
2018-03-23T02:27:19.606Z,23.71
2018-03-23T02:27:31.728Z,23.88
2018-03-23T02:27:43.860Z,23.88
2018-03-23T02:27:56.380Z,23.88
2018-03-23T02:28:08.513Z,23.88
2018-03-23T02:28:20.639Z,23.88
2018-03-23T02:28:32.780Z,23.88
2018-03-23T02:28:44.902Z,23.88
2018-03-23T02:28:57.014Z,23.88
2018-03-23T02:29:09.158Z,23.88
2018-03-23T02:29:21.342Z,23.88
2018-03-23T02:29:33.480Z,23.88
2018-03-23T02:29:45.602Z,23.88
2018-03-23T02:29:57.736Z,23.88
2018-03-23T02:30:09.898Z,23.88
2018-03-23T02:30:22.113Z,23.88
2018-03-23T02:30:34.270Z,23.57
2018-03-23T02:30:46.443Z,23.57
2018-03-23T02:30:58.611Z,23.57
2018-03-23T02:31:10.821Z,23.57
2018-03-23T02:31:23.213Z,23.57
2018-03-23T02:31:35.362Z,23.57
2018-03-23T02:31:47.557Z,23.57
2018-03-23T02:31:59.693Z,23.57
2018-03-23T02:32:11.870Z,23.57
2018-03-23T02:32:24.206Z,23.57
2018-03-23T02:32:36.366Z,23.57
2018-03-23T02:32:48.541Z,23.57
2018-03-23T02:33:00.720Z,23.57
2018-03-23T02:33:13.029Z,23.57
2018-03-23T02:33:25.191Z,23.57
2018-03-23T02:33:37.395Z,23.16
2018-03-23T02:33:49.624Z,23.16
2018-03-23T02:34:01.804Z,23.16
2018-03-23T02:34:13.980Z,23.16
2018-03-23T02:34:26.134Z,23.16
2018-03-23T02:34:38.274Z,23.16
2018-03-23T02:34:50.423Z,23.16
2018-03-23T02:35:02.621Z,23.16
2018-03-23T02:35:14.767Z,23.16
2018-03-23T02:35:26.919Z,23.16
2018-03-23T02:35:39.096Z,23.16
2018-03-23T02:35:51.261Z,23.16
2018-03-23T02:36:03.441Z,23.16
2018-03-23T02:36:15.654Z,23.16
2018-03-23T02:36:27.844Z,23.16
2018-03-23T02:36:39.982Z,23.73
2018-03-23T02:36:52.120Z,23.73
2018-03-23T02:37:04.281Z,23.73
2018-03-23T02:37:16.446Z,23.73
2018-03-23T02:37:28.883Z,23.73
2018-03-23T02:37:41.032Z,23.73